Terminal Aerodrome Forecast
Issued by NWS Medford, OR

Current Version | Previous Version | Text Only | Print | Product List | Glossary On
Versions: 1 2 3 4 5 6 7 8 9 10 11 12 13 14 15 16 17 18 19 20 21
774
FTUS46 KMFR 062332
TAFMFR
TAF
KMFR 062332Z 0700/0724 VRB03KT P6SM FEW035 BKN060
     FM071300 00000KT 2SM BR OVC004
     FM071700 VRB03KT P6SM FEW006=

USA.gov is the U.S. government's official web portal to all federal, state and local government web resources and services.